createdAt,value
2018-07-15T00:01:37.182Z,14.50
2018-07-15T00:04:05.578Z,14.60
2018-07-15T00:06:33.609Z,14.60
2018-07-15T00:09:01.638Z,14.70
2018-07-15T00:11:30.798Z,14.70
2018-07-15T00:13:58.829Z,14.70
2018-07-15T00:16:26.957Z,14.80
2018-07-15T00:18:55.034Z,14.70
2018-07-15T00:26:19.073Z,14.50
2018-07-15T00:28:47.141Z,14.60
2018-07-15T00:31:15.209Z,14.60
2018-07-15T00:33:43.402Z,14.50
2018-07-15T00:36:11.557Z,14.50
2018-07-15T00:38:39.587Z,14.50
2018-07-15T00:41:07.927Z,14.50
2018-07-15T00:43:35.971Z,14.50
2018-07-15T00:46:04.018Z,14.50
2018-07-15T00:48:32.082Z,14.50
2018-07-15T00:51:00.286Z,14.50
2018-07-15T00:53:28.462Z,14.50
2018-07-15T00:55:56.539Z,14.50
2018-07-15T00:58:24.613Z,14.50
2018-07-15T01:03:26.053Z,14.50
2018-07-15T01:05:54.118Z,14.40
2018-07-15T01:08:22.157Z,14.40
2018-07-15T01:10:50.194Z,14.30
2018-07-15T01:13:18.249Z,14.30
2018-07-15T01:15:46.302Z,14.40
2018-07-15T01:20:42.530Z,14.40
2018-07-15T01:23:10.578Z,14.40
2018-07-15T01:25:38.641Z,14.40
2018-07-15T01:28:06.714Z,14.40
2018-07-15T01:30:34.750Z,14.30
2018-07-15T01:33:02.798Z,14.30
2018-07-15T01:40:26.794Z,14.20
2018-07-15T01:42:54.849Z,14.20
2018-07-15T01:45:22.914Z,14.20
2018-07-15T01:50:18.817Z,14.10
2018-07-15T01:52:46.902Z,14.10
2018-07-15T01:55:14.970Z,14.10
2018-07-15T01:57:43.073Z,14.00
2018-07-15T02:00:11.124Z,14.00
2018-07-15T02:02:39.175Z,14.00
2018-07-15T02:05:07.629Z,14.00
2018-07-15T02:07:36.421Z,14.00
2018-07-15T02:10:04.474Z,14.10
2018-07-15T02:15:00.377Z,14.10
2018-07-15T02:17:28.838Z,14.10
2018-07-15T02:19:56.899Z,14.10
2018-07-15T02:22:24.975Z,14.00
2018-07-15T02:27:20.897Z,14.00
2018-07-15T02:29:48.941Z,14.00
2018-07-15T02:32:17.054Z,14.00
2018-07-15T02:34:45.096Z,14.00
2018-07-15T02:37:13.170Z,13.90
2018-07-15T02:39:41.237Z,13.90
2018-07-15T02:42:09.317Z,13.80
2018-07-15T02:44:37.361Z,13.90
2018-07-15T02:47:05.397Z,13.90
2018-07-15T02:49:33.487Z,13.80
2018-07-15T02:52:01.580Z,13.80
2018-07-15T02:54:29.634Z,13.70
2018-07-15T02:56:57.705Z,13.70
2018-07-15T02:59:25.755Z,13.70
2018-07-15T03:01:54.062Z,13.70
2018-07-15T03:04:22.114Z,13.70
2018-07-15T03:06:50.154Z,13.70
2018-07-15T03:09:18.201Z,13.70
2018-07-15T03:11:46.242Z,13.70
2018-07-15T03:14:14.302Z,13.70
2018-07-15T03:16:42.375Z,13.70
2018-07-15T03:19:10.449Z,13.70
2018-07-15T03:21:38.526Z,13.70
2018-07-15T03:24:06.633Z,13.70
2018-07-15T03:29:02.778Z,13.70
2018-07-15T03:31:30.848Z,13.70
2018-07-15T03:33:58.949Z,13.80
2018-07-15T03:48:47.829Z,13.80
2018-07-15T03:51:15.986Z,13.70
2018-07-15T03:53:44.044Z,13.70
2018-07-15T03:56:12.090Z,13.70
2018-07-15T03:58:40.142Z,13.70
2018-07-15T04:01:08.229Z,13.70
2018-07-15T04:03:36.795Z,13.70
2018-07-15T04:06:04.846Z,13.70
2018-07-15T04:08:32.933Z,13.70
2018-07-15T04:11:00.940Z,13.80
2018-07-15T04:13:29.034Z,13.80
2018-07-15T04:15:57.075Z,13.80
2018-07-15T04:18:25.120Z,13.80
2018-07-15T04:20:53.197Z,13.90
2018-07-15T04:23:21.280Z,13.90
2018-07-15T04:25:49.314Z,14.00
2018-07-15T04:28:17.438Z,14.00
2018-07-15T04:30:45.441Z,14.00
2018-07-15T04:33:13.509Z,14.10
2018-07-15T04:38:09.666Z,14.20
2018-07-15T04:40:37.742Z,14.20
2018-07-15T04:43:05.875Z,14.30
2018-07-15T04:45:33.926Z,14.30
2018-07-15T04:48:02.017Z,14.40
2018-07-15T04:50:30.058Z,14.40
2018-07-15T04:52:58.257Z,14.60
2018-07-15T04:55:26.359Z,14.60
2018-07-15T04:57:54.411Z,14.60
2018-07-15T05:00:22.468Z,14.70
2018-07-15T05:02:50.724Z,14.70
2018-07-15T05:05:18.798Z,14.90
2018-07-15T05:07:46.862Z,14.80
2018-07-15T05:10:14.913Z,14.90
2018-07-15T05:12:42.986Z,15.00
2018-07-15T05:15:11.038Z,15.00
2018-07-15T05:17:39.095Z,15.10
2018-07-15T05:20:07.182Z,15.10
2018-07-15T05:22:35.233Z,15.10
2018-07-15T05:25:03.339Z,15.10
2018-07-15T05:27:31.366Z,15.10
2018-07-15T05:29:59.453Z,15.10
2018-07-15T05:32:27.498Z,15.10
2018-07-15T05:34:56.114Z,15.20
2018-07-15T05:37:24.151Z,15.20
2018-07-15T05:39:52.211Z,15.20
2018-07-15T05:42:20.306Z,15.10
2018-07-15T05:44:48.354Z,15.20
2018-07-15T05:47:16.394Z,15.30
2018-07-15T05:49:44.470Z,15.40
2018-07-15T05:52:12.509Z,15.50
2018-07-15T05:57:09.997Z,15.60
2018-07-15T05:59:38.038Z,15.60
2018-07-15T06:02:06.197Z,15.60
2018-07-15T06:04:34.773Z,15.70
2018-07-15T06:07:02.814Z,15.80
2018-07-15T06:09:30.861Z,15.90
2018-07-15T06:11:58.896Z,16.20
2018-07-15T06:14:26.954Z,16.20
2018-07-15T06:16:54.991Z,16.10
2018-07-15T06:19:23.034Z,16.10
2018-07-15T06:21:51.084Z,16.10
2018-07-15T06:24:19.154Z,16.20
2018-07-15T06:26:47.194Z,16.40
2018-07-15T06:29:15.267Z,16.40
2018-07-15T06:34:13.022Z,16.60
2018-07-15T06:36:41.116Z,16.60
2018-07-15T06:39:09.740Z,16.60
2018-07-15T06:41:37.822Z,16.80
2018-07-15T06:44:06.377Z,16.80
2018-07-15T06:46:34.425Z,16.80
2018-07-15T06:49:02.502Z,16.90
2018-07-15T06:51:30.883Z,16.90
2018-07-15T06:53:59.009Z,17.00
2018-07-15T06:56:26.990Z,16.80
2018-07-15T06:58:55.055Z,17.20
2018-07-15T07:01:23.137Z,17.20
2018-07-15T07:03:51.187Z,17.30
2018-07-15T07:06:19.287Z,17.40
2018-07-15T07:08:47.363Z,17.30
2018-07-15T07:11:15.760Z,17.50
2018-07-15T07:13:44.032Z,17.50
2018-07-15T07:16:12.066Z,17.60
2018-07-15T07:18:40.154Z,17.50
2018-07-15T07:21:08.230Z,17.80
2018-07-15T07:23:36.311Z,17.80
2018-07-15T07:26:04.638Z,17.90
2018-07-15T07:28:32.666Z,17.90
2018-07-15T07:31:00.757Z,18.00
2018-07-15T07:33:28.821Z,18.00
2018-07-15T07:35:56.911Z,18.00
2018-07-15T07:38:24.998Z,18.10
2018-07-15T07:40:53.052Z,18.10
2018-07-15T07:48:17.265Z,18.50
2018-07-15T07:50:45.406Z,18.50
2018-07-15T07:53:13.494Z,18.50
2018-07-15T07:55:41.539Z,18.50
2018-07-15T07:58:09.581Z,18.60
2018-07-15T08:00:37.658Z,18.60
2018-07-15T08:03:05.685Z,18.60
2018-07-15T08:05:33.863Z,18.80
2018-07-15T08:08:02.466Z,18.70
2018-07-15T08:10:30.531Z,18.80
2018-07-15T08:12:58.578Z,18.70
2018-07-15T08:15:26.623Z,18.70
2018-07-15T08:17:54.665Z,18.60
2018-07-15T08:20:22.716Z,18.70
2018-07-15T08:22:50.778Z,18.80
2018-07-15T08:25:18.825Z,19.00
2018-07-15T08:27:46.890Z,19.20
2018-07-15T08:30:26.377Z,19.30
2018-07-15T08:32:54.485Z,19.30
2018-07-15T08:35:22.541Z,19.30
2018-07-15T08:37:50.596Z,19.40
2018-07-15T08:40:18.702Z,19.40
2018-07-15T08:42:46.979Z,19.60
2018-07-15T08:45:15.289Z,19.90
2018-07-15T08:47:43.381Z,20.00
2018-07-15T08:50:11.450Z,20.20
2018-07-15T08:52:39.489Z,20.10
2018-07-15T08:55:07.637Z,20.20
2018-07-15T08:57:36.254Z,20.30
2018-07-15T09:00:04.429Z,20.40
2018-07-15T09:02:32.498Z,20.30
2018-07-15T09:05:00.549Z,20.20
2018-07-15T09:07:28.626Z,20.30
2018-07-15T09:09:56.858Z,20.40
2018-07-15T09:12:25.052Z,20.40
2018-07-15T09:14:53.113Z,20.40
2018-07-15T09:17:21.181Z,20.30
2018-07-15T09:19:49.265Z,20.40
2018-07-15T09:22:17.338Z,20.70
2018-07-15T09:24:45.557Z,20.60
2018-07-15T09:27:13.630Z,20.70
2018-07-15T09:29:41.687Z,20.80
2018-07-15T09:32:09.742Z,20.90
2018-07-15T09:34:37.997Z,20.70
2018-07-15T09:37:06.071Z,20.50
2018-07-15T09:39:34.481Z,20.50
2018-07-15T09:42:02.622Z,20.80
2018-07-15T09:44:30.838Z,20.80
2018-07-15T09:46:59.077Z,20.90
2018-07-15T09:49:27.373Z,21.00
2018-07-15T09:51:56.293Z,21.00
2018-07-15T09:54:24.547Z,20.80
2018-07-15T09:56:52.702Z,21.00
2018-07-15T09:59:20.794Z,21.30
2018-07-15T10:01:49.187Z,21.40
2018-07-15T10:04:17.269Z,21.00
2018-07-15T10:06:45.326Z,20.80
2018-07-15T10:09:13.398Z,20.90
2018-07-15T10:11:41.490Z,20.80
2018-07-15T10:16:37.547Z,20.70
2018-07-15T10:19:05.708Z,20.80
2018-07-15T10:21:33.701Z,21.00
2018-07-15T10:24:01.976Z,21.20
2018-07-15T10:26:30.041Z,21.00
2018-07-15T10:28:58.338Z,21.00
2018-07-15T10:31:26.418Z,21.00
2018-07-15T10:33:54.683Z,20.90
2018-07-15T10:36:22.830Z,21.00
2018-07-15T10:38:50.868Z,21.10
2018-07-15T10:41:18.950Z,21.20
2018-07-15T10:43:47.290Z,21.10
2018-07-15T10:46:15.415Z,21.20
2018-07-15T10:51:11.516Z,21.30
2018-07-15T10:53:39.595Z,21.30
2018-07-15T10:56:07.625Z,21.60
2018-07-15T10:58:35.676Z,21.70
2018-07-15T11:01:03.746Z,21.70
2018-07-15T11:03:31.870Z,21.50
2018-07-15T11:05:59.937Z,21.60
2018-07-15T11:08:28.017Z,21.80
2018-07-15T11:10:56.070Z,21.70
2018-07-15T11:13:24.162Z,21.40
2018-07-15T11:15:52.208Z,21.40
2018-07-15T11:18:20.265Z,21.60
2018-07-15T11:20:48.320Z,22.10
2018-07-15T11:23:17.015Z,22.50
2018-07-15T11:25:45.063Z,22.70
2018-07-15T11:28:13.113Z,22.70
2018-07-15T11:30:41.332Z,22.20
2018-07-15T11:33:09.362Z,22.10
2018-07-15T11:35:37.398Z,22.10
2018-07-15T11:38:05.501Z,22.10
2018-07-15T11:43:01.479Z,22.20
2018-07-15T11:45:29.545Z,22.20
2018-07-15T11:47:57.587Z,22.50
2018-07-15T11:50:25.630Z,22.70
2018-07-15T11:52:53.677Z,23.10
2018-07-15T11:55:21.746Z,23.00
2018-07-15T11:57:49.794Z,22.80
2018-07-15T12:00:17.838Z,22.60
2018-07-15T12:02:46.092Z,22.50
2018-07-15T12:05:14.145Z,22.30
2018-07-15T12:07:42.198Z,22.30
2018-07-15T12:10:10.248Z,22.30
2018-07-15T12:12:38.389Z,22.60
2018-07-15T12:15:06.451Z,22.80
2018-07-15T12:17:34.555Z,23.00
2018-07-15T12:20:02.618Z,23.10
2018-07-15T12:22:30.689Z,23.40
2018-07-15T12:24:58.802Z,23.20
2018-07-15T12:27:26.851Z,23.20
2018-07-15T12:29:54.921Z,23.00
2018-07-15T12:32:22.973Z,22.80
2018-07-15T12:34:51.032Z,22.50
2018-07-15T12:37:19.089Z,22.40
2018-07-15T12:39:47.137Z,22.60
2018-07-15T12:42:15.860Z,22.80
2018-07-15T12:44:43.930Z,23.10
2018-07-15T12:47:12.010Z,23.30
2018-07-15T12:49:40.090Z,23.20
2018-07-15T12:52:08.330Z,23.30
2018-07-15T12:54:36.445Z,23.40
2018-07-15T12:57:04.563Z,23.60
2018-07-15T12:59:32.642Z,23.60
2018-07-15T13:02:00.719Z,23.70
2018-07-15T13:04:28.815Z,23.30
2018-07-15T13:06:56.839Z,23.00
2018-07-15T13:09:24.880Z,22.70
2018-07-15T13:11:52.925Z,22.90
2018-07-15T13:14:20.982Z,23.20
2018-07-15T13:16:49.042Z,23.50
2018-07-15T13:21:48.024Z,23.60
2018-07-15T13:24:16.865Z,23.70
2018-07-15T13:26:44.901Z,23.90
2018-07-15T13:29:12.959Z,23.90
2018-07-15T13:31:40.989Z,23.90
2018-07-15T13:34:09.081Z,23.70
2018-07-15T13:36:37.234Z,23.60
2018-07-15T13:39:06.196Z,23.50
2018-07-15T13:44:03.030Z,23.50
2018-07-15T13:46:31.102Z,23.50
2018-07-15T13:48:59.565Z,23.40
2018-07-15T13:51:27.629Z,23.40
2018-07-15T13:53:55.671Z,23.30
2018-07-15T13:56:23.757Z,23.30
2018-07-15T13:58:51.845Z,23.50
2018-07-15T14:01:19.902Z,23.90
2018-07-15T14:03:47.934Z,24.40
2018-07-15T14:06:15.997Z,24.50
2018-07-15T14:08:44.047Z,24.30
2018-07-15T14:11:12.111Z,24.10
2018-07-15T14:13:40.158Z,23.90
2018-07-15T14:16:08.204Z,23.90
2018-07-15T14:18:36.234Z,23.90
2018-07-15T14:21:04.287Z,23.90
2018-07-15T14:23:32.334Z,24.40
2018-07-15T14:26:00.410Z,24.90
2018-07-15T14:28:28.444Z,25.30
2018-07-15T14:30:56.514Z,25.40
2018-07-15T14:33:24.557Z,25.80
2018-07-15T14:35:52.597Z,26.10
2018-07-15T14:38:20.850Z,26.30
2018-07-15T14:40:48.877Z,26.40
2018-07-15T14:43:16.917Z,26.30
2018-07-15T14:45:46.236Z,25.80
2018-07-15T14:48:14.298Z,25.90
2018-07-15T14:50:43.423Z,26.40
2018-07-15T14:53:11.553Z,26.90
2018-07-15T14:55:40.043Z,26.60
2018-07-15T14:58:09.435Z,26.60
2018-07-15T15:00:37.719Z,26.00
2018-07-15T15:03:06.194Z,25.50
2018-07-15T15:05:34.254Z,25.00
2018-07-15T15:08:02.345Z,24.90
2018-07-15T15:10:30.757Z,24.60
2018-07-15T15:12:59.030Z,25.00
2018-07-15T15:17:55.099Z,25.70
2018-07-15T15:20:23.141Z,26.30
2018-07-15T15:22:51.181Z,26.30
2018-07-15T15:25:19.225Z,26.30
2018-07-15T15:27:47.369Z,26.20
2018-07-15T15:30:15.407Z,26.30
2018-07-15T15:32:43.453Z,26.60
2018-07-15T15:35:11.537Z,26.80
2018-07-15T15:37:39.581Z,27.00
2018-07-15T15:40:07.669Z,27.00
2018-07-15T15:42:35.738Z,27.30
2018-07-15T15:45:03.799Z,27.30
2018-07-15T15:50:00.295Z,27.10
2018-07-15T15:52:28.413Z,27.50
2018-07-15T15:54:57.033Z,27.30
2018-07-15T15:57:25.152Z,26.60
2018-07-15T15:59:53.334Z,26.30
2018-07-15T16:02:21.387Z,25.30
2018-07-15T16:04:49.467Z,25.30
2018-07-15T16:07:17.549Z,25.30
2018-07-15T16:09:45.626Z,25.30
2018-07-15T16:12:13.686Z,25.10
2018-07-15T16:14:41.989Z,25.00
2018-07-15T16:17:10.083Z,25.50
2018-07-15T16:19:38.115Z,25.90
2018-07-15T16:22:06.174Z,25.80
2018-07-15T16:24:34.234Z,25.90
2018-07-15T16:27:02.546Z,26.80
2018-07-15T16:29:30.626Z,27.70
2018-07-15T16:31:58.716Z,28.20
2018-07-15T16:34:26.754Z,27.60
2018-07-15T16:36:54.806Z,27.00
2018-07-15T16:39:22.857Z,26.50
2018-07-15T16:41:51.022Z,25.90
2018-07-15T16:44:19.096Z,25.60
2018-07-15T16:46:47.166Z,25.30
2018-07-15T16:49:15.413Z,25.30
2018-07-15T16:51:43.459Z,25.10
2018-07-15T16:54:11.681Z,25.10
2018-07-15T16:56:39.729Z,24.90
2018-07-15T16:59:08.093Z,24.80
2018-07-15T17:01:36.900Z,24.90
2018-07-15T17:04:05.017Z,25.00
2018-07-15T17:06:33.053Z,24.90
2018-07-15T17:11:29.037Z,24.80
2018-07-15T17:13:57.088Z,24.70
2018-07-15T17:16:25.145Z,24.60
2018-07-15T17:18:53.192Z,24.50
2018-07-15T17:21:21.231Z,24.40
2018-07-15T17:23:49.294Z,24.30
2018-07-15T17:26:17.361Z,24.30
2018-07-15T17:28:45.639Z,24.40
2018-07-15T17:31:13.666Z,25.00
2018-07-15T17:33:41.749Z,26.30
2018-07-15T17:36:09.757Z,27.40
2018-07-15T17:38:38.215Z,28.00
2018-07-15T17:41:06.292Z,28.10
2018-07-15T17:43:34.308Z,27.60
2018-07-15T17:46:02.357Z,27.00
2018-07-15T17:48:30.470Z,26.30
2018-07-15T17:50:58.538Z,26.10
2018-07-15T17:53:26.589Z,25.70
2018-07-15T17:55:54.659Z,25.50
2018-07-15T17:58:22.762Z,25.30
2018-07-15T18:00:50.760Z,25.20
2018-07-15T18:03:18.829Z,25.00
2018-07-15T18:05:46.865Z,25.00
2018-07-15T18:08:15.209Z,24.90
2018-07-15T18:10:43.312Z,24.80
2018-07-15T18:13:11.326Z,24.60
2018-07-15T18:15:39.557Z,24.60
2018-07-15T18:18:07.625Z,24.60
2018-07-15T18:20:35.664Z,24.50
2018-07-15T18:23:03.705Z,24.50
2018-07-15T18:25:31.774Z,24.50
2018-07-15T18:27:59.822Z,24.40
2018-07-15T18:30:27.888Z,24.30
2018-07-15T18:32:55.945Z,24.10
2018-07-15T18:35:24.026Z,24.00
2018-07-15T18:37:52.100Z,23.90
2018-07-15T18:40:20.258Z,23.80
2018-07-15T18:42:48.343Z,23.70
2018-07-15T18:45:16.445Z,23.70
2018-07-15T18:47:44.503Z,23.70
2018-07-15T18:50:12.573Z,23.60
2018-07-15T18:52:40.601Z,23.50
2018-07-15T18:55:08.646Z,23.40
2018-07-15T18:57:36.721Z,23.30
2018-07-15T19:00:05.090Z,23.30
2018-07-15T19:02:33.164Z,23.30
2018-07-15T19:05:01.199Z,23.20
2018-07-15T19:07:29.249Z,23.10
2018-07-15T19:09:57.402Z,23.20
2018-07-15T19:12:25.470Z,23.10
2018-07-15T19:14:53.522Z,23.10
2018-07-15T19:17:21.589Z,23.00
2018-07-15T19:19:49.640Z,23.00
2018-07-15T19:22:17.705Z,22.90
2018-07-15T19:24:45.753Z,22.90
2018-07-15T19:27:13.846Z,22.80
2018-07-15T19:29:41.885Z,22.80
2018-07-15T19:32:10.054Z,22.80
2018-07-15T19:34:38.220Z,22.60
2018-07-15T19:37:06.270Z,22.60
2018-07-15T19:39:34.354Z,22.50
2018-07-15T19:42:02.396Z,22.50
2018-07-15T19:44:30.480Z,22.40
2018-07-15T19:46:58.510Z,22.40
2018-07-15T19:49:26.554Z,22.30
2018-07-15T19:51:54.634Z,22.30
2018-07-15T19:54:22.758Z,22.20
2018-07-15T19:56:50.808Z,22.20
2018-07-15T19:59:18.890Z,22.10
2018-07-15T20:01:46.928Z,22.10
2018-07-15T20:04:14.990Z,22.10
2018-07-15T20:06:43.072Z,22.10
2018-07-15T20:09:11.119Z,22.00
2018-07-15T20:11:39.189Z,22.00
2018-07-15T20:14:07.230Z,21.90
2018-07-15T20:16:35.300Z,21.90
2018-07-15T20:19:03.350Z,21.90
2018-07-15T20:21:31.400Z,21.70
2018-07-15T20:23:59.453Z,21.70
2018-07-15T20:26:27.485Z,21.70
2018-07-15T20:28:57.936Z,21.70
2018-07-15T20:31:27.015Z,21.60
2018-07-15T20:33:56.916Z,21.60
2018-07-15T20:36:25.146Z,21.50
2018-07-15T20:38:53.224Z,21.50
2018-07-15T20:41:21.257Z,21.50
2018-07-15T20:43:49.349Z,21.50
2018-07-15T20:46:17.402Z,21.40
2018-07-15T20:48:45.453Z,21.40
2018-07-15T20:51:13.523Z,21.30
2018-07-15T20:53:41.920Z,21.30
2018-07-15T20:56:09.974Z,21.20
2018-07-15T20:58:38.018Z,21.10
2018-07-15T21:01:06.114Z,21.10
2018-07-15T21:03:34.156Z,21.00
2018-07-15T21:06:02.210Z,20.90
2018-07-15T21:08:30.275Z,20.90
2018-07-15T21:10:58.318Z,20.90
2018-07-15T21:13:26.359Z,20.80
2018-07-15T21:15:54.437Z,20.80
2018-07-15T21:18:22.793Z,20.80
2018-07-15T21:20:50.927Z,20.70
2018-07-15T21:23:18.958Z,20.60
2018-07-15T21:25:47.093Z,20.60
2018-07-15T21:28:15.073Z,20.60
2018-07-15T21:30:43.265Z,20.50
2018-07-15T21:33:11.338Z,20.40
2018-07-15T21:35:39.381Z,20.40
2018-07-15T21:38:07.488Z,20.40
2018-07-15T21:40:35.593Z,20.30
2018-07-15T21:43:03.642Z,20.20
2018-07-15T21:45:31.738Z,20.20
2018-07-15T21:47:59.802Z,20.20
2018-07-15T21:50:27.993Z,20.10
2018-07-15T21:52:56.050Z,20.10
2018-07-15T21:55:24.082Z,20.00
2018-07-15T21:57:52.677Z,19.90
2018-07-15T22:00:20.762Z,20.00
2018-07-15T22:02:49.052Z,19.90
2018-07-15T22:05:17.232Z,19.90
2018-07-15T22:07:57.430Z,19.80
2018-07-15T22:10:29.980Z,19.80
2018-07-15T22:12:58.018Z,19.70
2018-07-15T22:15:26.098Z,19.60
2018-07-15T22:17:54.157Z,19.50
2018-07-15T22:20:22.221Z,19.50
2018-07-15T22:22:50.281Z,19.50
2018-07-15T22:25:18.415Z,19.50
2018-07-15T22:27:46.450Z,19.40
2018-07-15T22:32:42.421Z,19.40
2018-07-15T22:35:10.479Z,19.30
2018-07-15T22:37:38.936Z,19.30
2018-07-15T22:40:07.093Z,19.20
2018-07-15T22:42:41.561Z,19.20
2018-07-15T22:45:09.646Z,19.20
2018-07-15T22:47:37.761Z,19.20
2018-07-15T22:50:06.170Z,19.10
2018-07-15T22:52:34.256Z,19.00
2018-07-15T22:55:02.291Z,19.00
2018-07-15T22:57:30.341Z,19.00
2018-07-15T22:59:58.437Z,19.00
2018-07-15T23:02:26.494Z,18.90
2018-07-15T23:06:03.082Z,19.00
2018-07-15T23:08:32.149Z,18.80
2018-07-15T23:11:00.212Z,18.80
2018-07-15T23:13:28.258Z,18.80
2018-07-15T23:15:56.406Z,18.80
2018-07-15T23:18:24.561Z,18.80
2018-07-15T23:20:53.504Z,18.70
2018-07-15T23:23:21.574Z,18.70
2018-07-15T23:25:49.647Z,18.70
2018-07-15T23:28:18.025Z,18.70
2018-07-15T23:30:47.555Z,18.50
2018-07-15T23:33:15.609Z,18.50
2018-07-15T23:35:43.648Z,18.50
2018-07-15T23:38:11.697Z,18.60
2018-07-15T23:40:39.741Z,18.50
2018-07-15T23:43:07.802Z,18.50
2018-07-15T23:45:36.556Z,18.40
2018-07-15T23:48:04.815Z,18.40
2018-07-15T23:50:32.869Z,18.40
2018-07-15T23:53:00.929Z,18.30
2018-07-15T23:55:29.150Z,18.30
2018-07-15T23:57:57.357Z,18.20
